JNA852 RKSI-RORS
Flight info
| Callsign | JNA852 |
|---|---|
| Flight time | 1h 49m |
| Altitude | 40000 |
| Route | BOPTA Z51 BEDES Y711 KIDOS Z81 CJU Y572 RUGMA Y579 RUSAR Y27 YURIX Y62 GANAS Y576 DIANA |
| Aircraft | B772/H-SDE2E3FGHIJ5LORVWXY/LB1D1 |
Departure
| Time | 2026-05-08 07:37 |
|---|---|
| Airport | Incheon International Airport (RKSI) |
Arrival
| Time | 2026-05-08 09:27 |
|---|---|
| Airport | Shimojishima Airport (RORS) |
| Time | Latitude | Longitude | Altitude | Speed | Heading |
|---|---|---|---|---|---|
| 2026-05-08 07:10 | 37.47020 | 126.42605 | 37 ft | 0 kts | 109° |
| 2026-05-08 07:23 | 37.47025 | 126.42589 | 37 ft | 2 kts | 118° |
| 2026-05-08 07:23 | 37.47033 | 126.42571 | 35 ft | 2 kts | 126° |
| 2026-05-08 07:24 | 37.47044 | 126.42556 | 35 ft | 2 kts | 142° |
| 2026-05-08 07:24 | 37.47058 | 126.42545 | 33 ft | 2 kts | 167° |
| 2026-05-08 07:24 | 37.47074 | 126.42544 | 35 ft | 2 kts | 194° |
| 2026-05-08 07:24 | 37.47089 | 126.42552 | 35 ft | 2 kts | 221° |
| 2026-05-08 07:25 | 37.47094 | 126.42557 | 35 ft | 0 kts | 233° |
| 2026-05-08 07:28 | 37.47077 | 126.42527 | 37 ft | 8 kts | 234° |
| 2026-05-08 07:28 | 37.47039 | 126.42459 | 37 ft | 10 kts | 234° |
| 2026-05-08 07:28 | 37.46999 | 126.42389 | 37 ft | 10 kts | 234° |
| 2026-05-08 07:28 | 37.46958 | 126.42320 | 37 ft | 10 kts | 226° |
| 2026-05-08 07:29 | 37.46896 | 126.42313 | 37 ft | 10 kts | 147° |
| 2026-05-08 07:29 | 37.46842 | 126.42366 | 37 ft | 10 kts | 144° |
| 2026-05-08 07:29 | 37.46787 | 126.42416 | 37 ft | 10 kts | 144° |
| 2026-05-08 07:29 | 37.46732 | 126.42465 | 36 ft | 10 kts | 144° |
| 2026-05-08 07:30 | 37.46560 | 126.42618 | 37 ft | 10 kts | 144° |
| 2026-05-08 07:30 | 37.46505 | 126.42668 | 37 ft | 10 kts | 144° |
| 2026-05-08 07:31 | 37.46449 | 126.42718 | 37 ft | 10 kts | 144° |
| 2026-05-08 07:31 | 37.46393 | 126.42768 | 37 ft | 10 kts | 144° |
| 2026-05-08 07:31 | 37.46337 | 126.42818 | 37 ft | 10 kts | 145° |
| 2026-05-08 07:31 | 37.46281 | 126.42866 | 37 ft | 10 kts | 146° |
| 2026-05-08 07:32 | 37.46221 | 126.42920 | 37 ft | 14 kts | 144° |
| 2026-05-08 07:32 | 37.46103 | 126.43026 | 37 ft | 23 kts | 144° |
| 2026-05-08 07:32 | 37.45970 | 126.43144 | 37 ft | 23 kts | 144° |
| 2026-05-08 07:32 | 37.45839 | 126.43261 | 37 ft | 23 kts | 144° |
| 2026-05-08 07:33 | 37.45703 | 126.43381 | 37 ft | 23 kts | 144° |
| 2026-05-08 07:33 | 37.45573 | 126.43498 | 36 ft | 23 kts | 144° |
| 2026-05-08 07:33 | 37.45440 | 126.43616 | 37 ft | 23 kts | 144° |
| 2026-05-08 07:33 | 37.45307 | 126.43735 | 37 ft | 23 kts | 144° |
| 2026-05-08 07:34 | 37.45174 | 126.43853 | 37 ft | 23 kts | 144° |
| 2026-05-08 07:34 | 37.45041 | 126.43971 | 37 ft | 23 kts | 144° |
| 2026-05-08 07:34 | 37.44908 | 126.44089 | 37 ft | 23 kts | 144° |
| 2026-05-08 07:34 | 37.44776 | 126.44207 | 37 ft | 23 kts | 144° |
| 2026-05-08 07:35 | 37.44666 | 126.44305 | 37 ft | 17 kts | 144° |
| 2026-05-08 07:35 | 37.44572 | 126.44388 | 35 ft | 14 kts | 144° |
| 2026-05-08 07:35 | 37.44485 | 126.44395 | 37 ft | 14 kts | 218° |
| 2026-05-08 07:35 | 37.44425 | 126.44298 | 37 ft | 14 kts | 235° |
| 2026-05-08 07:36 | 37.44373 | 126.44203 | 37 ft | 12 kts | 240° |
| 2026-05-08 07:36 | 37.44399 | 126.44124 | 37 ft | 11 kts | 324° |
| 2026-05-08 07:36 | 37.44555 | 126.43985 | 37 ft | 54 kts | 324° |
| 2026-05-08 07:36 | 37.45085 | 126.43514 | 37 ft | 132 kts | 324° |
| 2026-05-08 07:37 | 37.45958 | 126.42697 | 456 ft | 168 kts | 323° |
| 2026-05-08 07:37 | 37.46969 | 126.41863 | 1476 ft | 177 kts | 326° |
| 2026-05-08 07:37 | 37.47924 | 126.40887 | 2277 ft | 185 kts | 307° |
| 2026-05-08 07:37 | 37.48534 | 126.39342 | 2441 ft | 208 kts | 303° |
| 2026-05-08 07:38 | 37.49505 | 126.37902 | 2721 ft | 226 kts | 315° |
| 2026-05-08 07:38 | 37.50365 | 126.36204 | 3182 ft | 241 kts | 285° |
| 2026-05-08 07:38 | 37.50477 | 126.34077 | 3861 ft | 248 kts | 274° |
| 2026-05-08 07:38 | 37.50512 | 126.31888 | 4662 ft | 251 kts | 275° |
| 2026-05-08 07:39 | 37.50420 | 126.29710 | 5376 ft | 258 kts | 259° |
| 2026-05-08 07:39 | 37.49470 | 126.27715 | 6050 ft | 278 kts | 230° |
| 2026-05-08 07:39 | 37.47838 | 126.26324 | 6830 ft | 291 kts | 207° |
| 2026-05-08 07:39 | 37.45821 | 126.25796 | 7582 ft | 305 kts | 182° |
| 2026-05-08 07:40 | 37.43696 | 126.25916 | 8138 ft | 307 kts | 184° |
| 2026-05-08 07:40 | 37.41549 | 126.26185 | 8582 ft | 319 kts | 165° |
| 2026-05-08 07:40 | 37.39458 | 126.27198 | 9208 ft | 325 kts | 158° |
| 2026-05-08 07:40 | 37.37368 | 126.28330 | 9989 ft | 329 kts | 158° |
| 2026-05-08 07:41 | 37.35236 | 126.29497 | 10526 ft | 343 kts | 158° |
| 2026-05-08 07:41 | 37.32965 | 126.30728 | 10716 ft | 368 kts | 158° |
| 2026-05-08 07:41 | 37.30529 | 126.32033 | 10910 ft | 394 kts | 159° |
| 2026-05-08 07:41 | 37.27948 | 126.33401 | 11401 ft | 409 kts | 159° |
| 2026-05-08 07:42 | 37.25287 | 126.34802 | 12131 ft | 419 kts | 159° |
| 2026-05-08 07:42 | 37.22575 | 126.36223 | 13052 ft | 425 kts | 160° |
| 2026-05-08 07:42 | 37.19822 | 126.37659 | 13954 ft | 432 kts | 160° |
| 2026-05-08 07:42 | 37.17029 | 126.39113 | 14788 ft | 436 kts | 160° |
| 2026-05-08 07:43 | 37.14219 | 126.40572 | 15670 ft | 440 kts | 161° |
| 2026-05-08 07:43 | 37.11380 | 126.42046 | 16530 ft | 443 kts | 161° |
| 2026-05-08 07:43 | 37.08516 | 126.43531 | 17349 ft | 448 kts | 161° |
| 2026-05-08 07:43 | 37.05617 | 126.45033 | 18148 ft | 453 kts | 161° |
| 2026-05-08 07:44 | 37.02695 | 126.46545 | 18830 ft | 458 kts | 162° |
| 2026-05-08 07:44 | 36.99737 | 126.48075 | 19473 ft | 463 kts | 162° |
| 2026-05-08 07:44 | 36.96747 | 126.49619 | 20109 ft | 468 kts | 163° |
| 2026-05-08 07:44 | 36.93721 | 126.51182 | 20742 ft | 472 kts | 163° |
| 2026-05-08 07:45 | 36.90666 | 126.52758 | 21379 ft | 477 kts | 164° |
| 2026-05-08 07:45 | 36.87598 | 126.54340 | 21973 ft | 483 kts | 165° |
| 2026-05-08 07:45 | 36.84455 | 126.55959 | 22602 ft | 488 kts | 165° |
| 2026-05-08 07:45 | 36.81351 | 126.57559 | 23268 ft | 491 kts | 165° |
| 2026-05-08 07:46 | 36.78134 | 126.59215 | 23875 ft | 495 kts | 166° |
| 2026-05-08 07:46 | 36.74939 | 126.60854 | 24443 ft | 497 kts | 167° |
| 2026-05-08 07:46 | 36.71698 | 126.62302 | 25009 ft | 491 kts | 173° |
| 2026-05-08 07:46 | 36.68413 | 126.63421 | 25591 ft | 489 kts | 175° |
| 2026-05-08 07:47 | 36.65156 | 126.64476 | 26157 ft | 490 kts | 176° |
| 2026-05-08 07:47 | 36.61805 | 126.65560 | 26704 ft | 492 kts | 176° |
| 2026-05-08 07:47 | 36.58491 | 126.66646 | 27218 ft | 495 kts | 176° |
| 2026-05-08 07:47 | 36.55194 | 126.67739 | 27695 ft | 497 kts | 176° |
| 2026-05-08 07:48 | 36.51847 | 126.68858 | 28192 ft | 499 kts | 176° |
| 2026-05-08 07:48 | 36.48492 | 126.69984 | 28627 ft | 501 kts | 176° |
| 2026-05-08 07:48 | 36.45113 | 126.71119 | 29050 ft | 504 kts | 176° |
| 2026-05-08 07:48 | 36.41723 | 126.72254 | 29468 ft | 505 kts | 176° |
| 2026-05-08 07:49 | 36.38321 | 126.73390 | 29880 ft | 507 kts | 176° |
| 2026-05-08 07:49 | 36.34915 | 126.74532 | 30200 ft | 509 kts | 176° |
| 2026-05-08 07:49 | 36.31482 | 126.75687 | 30425 ft | 513 kts | 177° |
| 2026-05-08 07:49 | 36.28028 | 126.76852 | 30645 ft | 516 kts | 177° |
| 2026-05-08 07:50 | 36.24559 | 126.78021 | 30873 ft | 517 kts | 177° |
| 2026-05-08 07:50 | 36.21082 | 126.79190 | 31169 ft | 516 kts | 178° |
| 2026-05-08 07:50 | 36.17610 | 126.80116 | 31502 ft | 503 kts | 185° |
| 2026-05-08 07:50 | 36.14182 | 126.80581 | 31848 ft | 490 kts | 190° |
| 2026-05-08 07:51 | 36.10812 | 126.80711 | 32215 ft | 479 kts | 195° |
| 2026-05-08 07:51 | 36.07538 | 126.80478 | 32603 ft | 466 kts | 200° |
| 2026-05-08 07:51 | 36.04310 | 126.80086 | 32958 ft | 464 kts | 200° |
| 2026-05-08 07:51 | 36.01102 | 126.79698 | 33310 ft | 464 kts | 200° |
| 2026-05-08 07:52 | 35.97892 | 126.79326 | 33672 ft | 463 kts | 200° |
| 2026-05-08 07:52 | 35.94684 | 126.78973 | 34046 ft | 462 kts | 200° |
| 2026-05-08 07:52 | 35.91486 | 126.78628 | 34321 ft | 461 kts | 199° |
| 2026-05-08 07:52 | 35.88283 | 126.78282 | 34543 ft | 462 kts | 199° |
| 2026-05-08 07:53 | 35.85077 | 126.77935 | 34773 ft | 463 kts | 199° |
| 2026-05-08 07:53 | 35.81867 | 126.77590 | 35032 ft | 463 kts | 199° |
| 2026-05-08 07:53 | 35.78656 | 126.77244 | 35287 ft | 463 kts | 199° |
| 2026-05-08 07:53 | 35.75453 | 126.76900 | 35541 ft | 463 kts | 198° |
| 2026-05-08 07:54 | 35.72242 | 126.76554 | 35766 ft | 463 kts | 198° |
| 2026-05-08 07:54 | 35.69025 | 126.76208 | 35994 ft | 464 kts | 198° |
| 2026-05-08 07:54 | 35.65814 | 126.75863 | 36232 ft | 464 kts | 198° |
| 2026-05-08 07:54 | 35.62596 | 126.75518 | 36451 ft | 464 kts | 198° |
| 2026-05-08 07:55 | 35.59384 | 126.75173 | 36675 ft | 464 kts | 198° |
| 2026-05-08 07:55 | 35.56165 | 126.74828 | 36901 ft | 464 kts | 198° |
| 2026-05-08 07:55 | 35.52947 | 126.74483 | 37118 ft | 464 kts | 198° |
| 2026-05-08 07:55 | 35.49768 | 126.74144 | 37334 ft | 464 kts | 197° |
| 2026-05-08 07:56 | 35.46506 | 126.73796 | 37551 ft | 465 kts | 197° |
| 2026-05-08 07:56 | 35.43324 | 126.73459 | 37767 ft | 465 kts | 197° |
| 2026-05-08 07:56 | 35.40097 | 126.73117 | 37991 ft | 465 kts | 197° |
| 2026-05-08 07:56 | 35.36873 | 126.72775 | 38182 ft | 465 kts | 197° |
| 2026-05-08 07:57 | 35.33645 | 126.72431 | 38327 ft | 466 kts | 197° |
| 2026-05-08 07:57 | 35.30408 | 126.72088 | 38473 ft | 467 kts | 197° |
| 2026-05-08 07:57 | 35.27170 | 126.71746 | 38640 ft | 467 kts | 197° |
| 2026-05-08 07:57 | 35.23934 | 126.71405 | 38788 ft | 467 kts | 197° |
| 2026-05-08 07:58 | 35.20691 | 126.71063 | 38929 ft | 467 kts | 197° |
| 2026-05-08 07:58 | 35.17453 | 126.70723 | 39072 ft | 467 kts | 197° |
| 2026-05-08 07:58 | 35.14212 | 126.70382 | 39221 ft | 467 kts | 197° |
| 2026-05-08 07:58 | 35.10975 | 126.70039 | 39338 ft | 468 kts | 197° |
| 2026-05-08 07:59 | 35.07726 | 126.69696 | 39475 ft | 468 kts | 197° |
| 2026-05-08 07:59 | 35.04484 | 126.69352 | 39597 ft | 468 kts | 197° |
| 2026-05-08 07:59 | 35.01236 | 126.69008 | 39718 ft | 468 kts | 197° |
| 2026-05-08 07:59 | 34.97996 | 126.68666 | 39881 ft | 467 kts | 197° |
| 2026-05-08 08:00 | 34.94754 | 126.68325 | 39986 ft | 468 kts | 197° |
| 2026-05-08 08:00 | 34.88264 | 126.67639 | 40069 ft | 468 kts | 197° |
| 2026-05-08 08:01 | 34.81822 | 126.66962 | 40077 ft | 467 kts | 197° |
| 2026-05-08 08:01 | 34.75362 | 126.66284 | 40074 ft | 466 kts | 197° |
| 2026-05-08 08:02 | 34.68905 | 126.65605 | 40068 ft | 465 kts | 197° |
| 2026-05-08 08:02 | 34.62475 | 126.64930 | 40080 ft | 462 kts | 197° |
| 2026-05-08 08:03 | 34.56069 | 126.64261 | 40068 ft | 461 kts | 197° |
| 2026-05-08 08:03 | 34.50755 | 126.63705 | 40081 ft | 461 kts | 197° |
| 2026-05-08 08:04 | 34.44345 | 126.63034 | 40068 ft | 462 kts | 197° |
| 2026-05-08 08:04 | 34.37955 | 126.62359 | 40079 ft | 461 kts | 197° |
| 2026-05-08 08:05 | 34.30526 | 126.61552 | 40074 ft | 461 kts | 197° |
| 2026-05-08 08:05 | 34.25175 | 126.60976 | 40073 ft | 461 kts | 197° |
| 2026-05-08 08:06 | 34.18791 | 126.60305 | 40073 ft | 460 kts | 197° |
| 2026-05-08 08:06 | 34.12411 | 126.59643 | 40083 ft | 459 kts | 197° |
| 2026-05-08 08:07 | 34.06083 | 126.58985 | 40087 ft | 459 kts | 197° |
| 2026-05-08 08:07 | 33.99714 | 126.58322 | 40084 ft | 459 kts | 197° |
| 2026-05-08 08:08 | 33.93354 | 126.57660 | 40088 ft | 459 kts | 197° |
| 2026-05-08 08:08 | 33.86996 | 126.57001 | 40092 ft | 459 kts | 196° |
| 2026-05-08 08:09 | 33.80559 | 126.57030 | 40107 ft | 476 kts | 186° |
| 2026-05-08 08:09 | 33.74019 | 126.57385 | 40119 ft | 467 kts | 191° |
| 2026-05-08 08:10 | 33.67526 | 126.57390 | 40121 ft | 467 kts | 191° |
| 2026-05-08 08:10 | 33.61015 | 126.57472 | 40119 ft | 469 kts | 191° |
| 2026-05-08 08:11 | 33.54480 | 126.57627 | 40126 ft | 470 kts | 190° |
| 2026-05-08 08:11 | 33.47936 | 126.57793 | 40124 ft | 471 kts | 190° |
| 2026-05-08 08:12 | 33.41429 | 126.57951 | 40128 ft | 471 kts | 190° |
| 2026-05-08 08:12 | 33.34880 | 126.58059 | 40127 ft | 466 kts | 194° |
| 2026-05-08 08:13 | 33.28543 | 126.57125 | 40104 ft | 456 kts | 200° |
| 2026-05-08 08:13 | 33.22287 | 126.55906 | 40108 ft | 455 kts | 200° |
| 2026-05-08 08:14 | 33.16041 | 126.54681 | 40098 ft | 455 kts | 200° |
| 2026-05-08 08:14 | 33.09791 | 126.53472 | 40098 ft | 455 kts | 200° |
| 2026-05-08 08:15 | 33.03539 | 126.52269 | 40094 ft | 455 kts | 200° |
| 2026-05-08 08:15 | 32.97286 | 126.51066 | 40096 ft | 455 kts | 200° |
| 2026-05-08 08:16 | 32.91021 | 126.49863 | 40101 ft | 456 kts | 200° |
| 2026-05-08 08:16 | 32.84743 | 126.48660 | 40107 ft | 457 kts | 200° |
| 2026-05-08 08:17 | 32.78468 | 126.47458 | 40110 ft | 457 kts | 200° |
| 2026-05-08 08:17 | 32.72182 | 126.46256 | 40109 ft | 458 kts | 200° |
| 2026-05-08 08:18 | 32.65892 | 126.45055 | 40118 ft | 458 kts | 200° |
| 2026-05-08 08:18 | 32.59598 | 126.43855 | 40118 ft | 458 kts | 200° |
| 2026-05-08 08:19 | 32.53298 | 126.42655 | 40104 ft | 459 kts | 200° |
| 2026-05-08 08:19 | 32.46989 | 126.41456 | 40114 ft | 459 kts | 200° |
| 2026-05-08 08:20 | 32.40686 | 126.40259 | 40116 ft | 459 kts | 200° |
| 2026-05-08 08:20 | 32.34377 | 126.39063 | 40115 ft | 459 kts | 200° |
| 2026-05-08 08:21 | 32.28061 | 126.37867 | 40113 ft | 460 kts | 200° |
| 2026-05-08 08:21 | 32.21736 | 126.36671 | 40112 ft | 460 kts | 200° |
| 2026-05-08 08:22 | 32.15451 | 126.35485 | 40110 ft | 461 kts | 200° |
| 2026-05-08 08:22 | 32.09113 | 126.34289 | 40113 ft | 461 kts | 200° |
| 2026-05-08 08:23 | 32.02771 | 126.33096 | 40119 ft | 462 kts | 200° |
| 2026-05-08 08:23 | 31.96421 | 126.31903 | 40117 ft | 462 kts | 200° |
| 2026-05-08 08:24 | 31.90064 | 126.30709 | 40116 ft | 463 kts | 200° |
| 2026-05-08 08:24 | 31.83699 | 126.29516 | 40116 ft | 463 kts | 200° |
| 2026-05-08 08:25 | 31.77330 | 126.28324 | 40109 ft | 463 kts | 199° |
| 2026-05-08 08:25 | 31.70966 | 126.27134 | 40108 ft | 463 kts | 199° |
| 2026-05-08 08:26 | 31.64637 | 126.25953 | 40109 ft | 464 kts | 199° |
| 2026-05-08 08:26 | 31.58218 | 126.24756 | 40111 ft | 464 kts | 199° |
| 2026-05-08 08:27 | 31.51838 | 126.23568 | 40117 ft | 464 kts | 199° |
| 2026-05-08 08:27 | 31.45496 | 126.22389 | 40112 ft | 464 kts | 199° |
| 2026-05-08 08:28 | 31.39114 | 126.21204 | 40114 ft | 465 kts | 199° |
| 2026-05-08 08:28 | 31.32725 | 126.20019 | 40106 ft | 465 kts | 199° |
| 2026-05-08 08:29 | 31.26336 | 126.18836 | 40105 ft | 465 kts | 199° |
| 2026-05-08 08:29 | 31.19947 | 126.17656 | 40113 ft | 465 kts | 199° |
| 2026-05-08 08:30 | 31.13559 | 126.16477 | 40108 ft | 465 kts | 199° |
| 2026-05-08 08:30 | 31.03969 | 126.14709 | 40110 ft | 465 kts | 199° |
| 2026-05-08 08:31 | 30.97569 | 126.13531 | 40110 ft | 466 kts | 199° |
| 2026-05-08 08:31 | 30.91166 | 126.12354 | 40115 ft | 466 kts | 199° |
| 2026-05-08 08:32 | 30.84759 | 126.11178 | 40112 ft | 466 kts | 199° |
| 2026-05-08 08:32 | 30.78345 | 126.10003 | 40111 ft | 466 kts | 199° |
| 2026-05-08 08:33 | 30.71930 | 126.08829 | 40109 ft | 467 kts | 199° |
| 2026-05-08 08:33 | 30.65509 | 126.07655 | 40112 ft | 467 kts | 199° |
| 2026-05-08 08:34 | 30.59084 | 126.06482 | 40114 ft | 467 kts | 199° |
| 2026-05-08 08:34 | 30.52657 | 126.05311 | 40113 ft | 467 kts | 199° |
| 2026-05-08 08:35 | 30.46223 | 126.04139 | 40112 ft | 468 kts | 199° |
| 2026-05-08 08:35 | 30.39837 | 126.02978 | 40113 ft | 468 kts | 199° |
| 2026-05-08 08:36 | 30.33356 | 126.01801 | 40111 ft | 468 kts | 199° |
| 2026-05-08 08:36 | 30.26964 | 126.00643 | 40117 ft | 468 kts | 199° |
| 2026-05-08 08:37 | 30.20529 | 125.99478 | 40105 ft | 468 kts | 199° |
| 2026-05-08 08:37 | 30.14091 | 125.98314 | 40107 ft | 468 kts | 199° |
| 2026-05-08 08:38 | 30.07657 | 125.97152 | 40107 ft | 468 kts | 199° |
| 2026-05-08 08:38 | 30.01220 | 125.95990 | 40108 ft | 468 kts | 199° |
| 2026-05-08 08:39 | 29.96913 | 125.95214 | 40112 ft | 468 kts | 199° |
| 2026-05-08 08:39 | 29.88342 | 125.93672 | 40113 ft | 469 kts | 199° |
| 2026-05-08 08:40 | 29.81900 | 125.92515 | 40112 ft | 469 kts | 199° |
| 2026-05-08 08:40 | 29.75449 | 125.91358 | 40113 ft | 469 kts | 199° |
| 2026-05-08 08:41 | 29.68995 | 125.90202 | 40117 ft | 469 kts | 199° |
| 2026-05-08 08:41 | 29.62536 | 125.89046 | 40114 ft | 470 kts | 199° |
| 2026-05-08 08:42 | 29.56075 | 125.87891 | 40117 ft | 470 kts | 199° |
| 2026-05-08 08:42 | 29.49613 | 125.86738 | 40116 ft | 470 kts | 199° |
| 2026-05-08 08:43 | 29.43142 | 125.85584 | 40115 ft | 471 kts | 199° |
| 2026-05-08 08:43 | 29.36706 | 125.84439 | 40110 ft | 471 kts | 199° |
| 2026-05-08 08:44 | 29.30182 | 125.83279 | 40113 ft | 471 kts | 199° |
| 2026-05-08 08:44 | 29.23701 | 125.82128 | 40114 ft | 471 kts | 198° |
| 2026-05-08 08:45 | 29.17264 | 125.80986 | 40121 ft | 472 kts | 198° |
| 2026-05-08 08:45 | 29.10779 | 125.79838 | 40113 ft | 472 kts | 198° |
| 2026-05-08 08:46 | 29.04290 | 125.78690 | 40112 ft | 472 kts | 198° |
| 2026-05-08 08:46 | 28.97791 | 125.77542 | 40115 ft | 472 kts | 198° |
| 2026-05-08 08:47 | 28.91292 | 125.76395 | 40113 ft | 473 kts | 198° |
| 2026-05-08 08:47 | 28.84779 | 125.75247 | 40113 ft | 473 kts | 198° |
| 2026-05-08 08:48 | 28.78265 | 125.74101 | 40112 ft | 473 kts | 198° |
| 2026-05-08 08:48 | 28.72847 | 125.73148 | 40113 ft | 474 kts | 198° |
| 2026-05-08 08:49 | 28.66329 | 125.72004 | 40106 ft | 474 kts | 198° |
| 2026-05-08 08:49 | 28.59801 | 125.70859 | 40106 ft | 475 kts | 198° |
| 2026-05-08 08:50 | 28.53273 | 125.69716 | 40107 ft | 475 kts | 198° |
| 2026-05-08 08:50 | 28.46732 | 125.68572 | 40093 ft | 475 kts | 198° |
| 2026-05-08 08:51 | 28.40193 | 125.67429 | 40094 ft | 475 kts | 198° |
| 2026-05-08 08:51 | 28.34764 | 125.66482 | 40104 ft | 476 kts | 198° |
| 2026-05-08 08:52 | 28.27137 | 125.65153 | 40092 ft | 476 kts | 198° |
| 2026-05-08 08:52 | 28.20587 | 125.64012 | 40097 ft | 476 kts | 198° |
| 2026-05-08 08:53 | 28.14037 | 125.62874 | 40096 ft | 476 kts | 198° |
| 2026-05-08 08:53 | 28.07480 | 125.61735 | 40094 ft | 477 kts | 198° |
| 2026-05-08 08:54 | 28.00926 | 125.60598 | 40090 ft | 477 kts | 198° |
| 2026-05-08 08:54 | 27.94361 | 125.59461 | 40089 ft | 477 kts | 198° |
| 2026-05-08 08:55 | 27.87789 | 125.58324 | 40090 ft | 478 kts | 198° |
| 2026-05-08 08:55 | 27.81214 | 125.57188 | 40089 ft | 478 kts | 198° |
| 2026-05-08 08:56 | 27.74634 | 125.56053 | 40087 ft | 478 kts | 197° |
| 2026-05-08 08:56 | 27.68052 | 125.54918 | 40080 ft | 478 kts | 197° |
| 2026-05-08 08:57 | 27.61467 | 125.53784 | 40079 ft | 479 kts | 197° |
| 2026-05-08 08:57 | 27.54875 | 125.52652 | 40076 ft | 479 kts | 197° |
| 2026-05-08 08:58 | 27.48289 | 125.51521 | 40069 ft | 479 kts | 197° |
| 2026-05-08 08:58 | 27.41687 | 125.50389 | 40071 ft | 480 kts | 197° |
| 2026-05-08 08:59 | 27.35124 | 125.49264 | 40071 ft | 480 kts | 197° |
| 2026-05-08 08:59 | 27.28517 | 125.48134 | 40074 ft | 481 kts | 197° |
| 2026-05-08 09:00 | 27.21897 | 125.47002 | 40060 ft | 481 kts | 197° |
| 2026-05-08 09:00 | 27.15274 | 125.45872 | 40060 ft | 481 kts | 197° |
| 2026-05-08 09:01 | 27.08649 | 125.44743 | 40058 ft | 482 kts | 197° |
| 2026-05-08 09:01 | 27.02018 | 125.43614 | 40049 ft | 482 kts | 197° |
| 2026-05-08 09:02 | 26.95383 | 125.42485 | 40050 ft | 482 kts | 197° |
| 2026-05-08 09:02 | 26.88745 | 125.41357 | 40050 ft | 482 kts | 196° |
| 2026-05-08 09:03 | 26.82105 | 125.40230 | 40048 ft | 483 kts | 196° |
| 2026-05-08 09:03 | 26.78756 | 125.39659 | 39460 ft | 494 kts | 196° |
| 2026-05-08 09:03 | 26.75344 | 125.39077 | 38788 ft | 495 kts | 196° |
| 2026-05-08 09:04 | 26.71984 | 125.38510 | 37995 ft | 497 kts | 196° |
| 2026-05-08 09:04 | 26.68532 | 125.37925 | 37331 ft | 504 kts | 195° |
| 2026-05-08 09:04 | 26.65007 | 125.37330 | 36844 ft | 504 kts | 195° |
| 2026-05-08 09:04 | 26.61617 | 125.36764 | 36344 ft | 495 kts | 195° |
| 2026-05-08 09:05 | 26.59324 | 125.36379 | 36015 ft | 491 kts | 195° |
| 2026-05-08 09:05 | 26.54886 | 125.35631 | 35299 ft | 484 kts | 195° |
| 2026-05-08 09:05 | 26.51570 | 125.35069 | 34628 ft | 482 kts | 195° |
| 2026-05-08 09:05 | 26.48242 | 125.34505 | 33978 ft | 487 kts | 195° |
| 2026-05-08 09:06 | 26.44881 | 125.33936 | 33524 ft | 489 kts | 194° |
| 2026-05-08 09:06 | 26.41513 | 125.33369 | 33201 ft | 488 kts | 194° |
| 2026-05-08 09:06 | 26.38163 | 125.32807 | 32870 ft | 488 kts | 194° |
| 2026-05-08 09:06 | 26.34805 | 125.32243 | 32487 ft | 488 kts | 194° |
| 2026-05-08 09:07 | 26.31449 | 125.31679 | 32044 ft | 482 kts | 194° |
| 2026-05-08 09:07 | 26.28177 | 125.31135 | 30734 ft | 473 kts | 194° |
| 2026-05-08 09:07 | 26.24890 | 125.30580 | 28907 ft | 485 kts | 193° |
| 2026-05-08 09:07 | 26.21495 | 125.30002 | 28039 ft | 497 kts | 193° |
| 2026-05-08 09:08 | 26.18087 | 125.29432 | 27712 ft | 494 kts | 193° |
| 2026-05-08 09:08 | 26.14703 | 125.28869 | 27530 ft | 488 kts | 193° |
| 2026-05-08 09:08 | 26.11365 | 125.28312 | 27439 ft | 482 kts | 193° |
| 2026-05-08 09:08 | 26.08074 | 125.27764 | 27401 ft | 475 kts | 193° |
| 2026-05-08 09:09 | 26.04860 | 125.27227 | 27286 ft | 471 kts | 193° |
| 2026-05-08 09:09 | 26.01622 | 125.26685 | 27063 ft | 470 kts | 193° |
| 2026-05-08 09:09 | 25.98384 | 125.26142 | 26790 ft | 470 kts | 193° |
| 2026-05-08 09:09 | 25.95157 | 125.25601 | 26537 ft | 470 kts | 193° |
| 2026-05-08 09:10 | 25.91927 | 125.25061 | 26314 ft | 469 kts | 193° |
| 2026-05-08 09:10 | 25.88706 | 125.24523 | 26110 ft | 467 kts | 193° |
| 2026-05-08 09:10 | 25.85494 | 125.23987 | 25921 ft | 466 kts | 193° |
| 2026-05-08 09:10 | 25.82285 | 125.23452 | 25728 ft | 465 kts | 193° |
| 2026-05-08 09:11 | 25.79089 | 125.22920 | 25534 ft | 464 kts | 193° |
| 2026-05-08 09:11 | 25.75896 | 125.22388 | 25345 ft | 463 kts | 193° |
| 2026-05-08 09:11 | 25.72711 | 125.21858 | 25163 ft | 462 kts | 193° |
| 2026-05-08 09:11 | 25.69534 | 125.21330 | 24992 ft | 461 kts | 193° |
| 2026-05-08 09:12 | 25.66367 | 125.20803 | 24821 ft | 460 kts | 193° |
| 2026-05-08 09:12 | 25.63201 | 125.20277 | 24666 ft | 459 kts | 193° |
| 2026-05-08 09:12 | 25.60039 | 125.19751 | 24494 ft | 458 kts | 193° |
| 2026-05-08 09:12 | 25.56892 | 125.19229 | 24334 ft | 457 kts | 193° |
| 2026-05-08 09:13 | 25.53756 | 125.18709 | 24294 ft | 453 kts | 193° |
| 2026-05-08 09:13 | 25.50723 | 125.18212 | 24159 ft | 421 kts | 193° |
| 2026-05-08 09:13 | 25.47944 | 125.17760 | 23941 ft | 386 kts | 193° |
| 2026-05-08 09:13 | 25.45384 | 125.17339 | 23605 ft | 361 kts | 194° |
| 2026-05-08 09:14 | 25.42957 | 125.16936 | 22958 ft | 346 kts | 194° |
| 2026-05-08 09:14 | 25.40607 | 125.16542 | 22131 ft | 338 kts | 194° |
| 2026-05-08 09:14 | 25.38328 | 125.16162 | 21249 ft | 334 kts | 194° |
| 2026-05-08 09:14 | 25.36059 | 125.15785 | 20387 ft | 330 kts | 194° |
| 2026-05-08 09:15 | 25.33804 | 125.15411 | 19562 ft | 325 kts | 194° |
| 2026-05-08 09:15 | 25.31583 | 125.15043 | 18748 ft | 321 kts | 194° |
| 2026-05-08 09:15 | 25.29384 | 125.14678 | 17818 ft | 319 kts | 194° |
| 2026-05-08 09:15 | 25.27222 | 125.14318 | 17076 ft | 308 kts | 196° |
| 2026-05-08 09:16 | 25.25209 | 125.13751 | 16523 ft | 289 kts | 202° |
| 2026-05-08 09:16 | 25.23967 | 125.13314 | 16252 ft | 277 kts | 204° |
| 2026-05-08 09:16 | 25.22740 | 125.12860 | 15798 ft | 273 kts | 205° |
| 2026-05-08 09:17 | 25.20996 | 125.12087 | 15038 ft | 271 kts | 208° |
| 2026-05-08 09:17 | 25.19289 | 125.11254 | 14399 ft | 266 kts | 209° |
| 2026-05-08 09:17 | 25.17611 | 125.10421 | 13712 ft | 264 kts | 209° |
| 2026-05-08 09:17 | 25.15946 | 125.09583 | 13019 ft | 261 kts | 209° |
| 2026-05-08 09:18 | 25.14249 | 125.08932 | 12336 ft | 261 kts | 195° |
| 2026-05-08 09:18 | 25.12465 | 125.08659 | 11795 ft | 254 kts | 192° |
| 2026-05-08 09:18 | 25.10748 | 125.08436 | 11419 ft | 241 kts | 192° |
| 2026-05-08 09:18 | 25.09125 | 125.08234 | 11007 ft | 230 kts | 191° |
| 2026-05-08 09:19 | 25.07563 | 125.08039 | 10573 ft | 220 kts | 190° |
| 2026-05-08 09:19 | 25.06091 | 125.08108 | 10174 ft | 207 kts | 176° |
| 2026-05-08 09:19 | 25.04710 | 125.08435 | 9543 ft | 202 kts | 172° |
| 2026-05-08 09:19 | 25.03375 | 125.08802 | 8904 ft | 194 kts | 171° |
| 2026-05-08 09:20 | 25.02097 | 125.09160 | 8330 ft | 182 kts | 170° |
| 2026-05-08 09:20 | 25.00920 | 125.09487 | 7742 ft | 172 kts | 171° |
| 2026-05-08 09:20 | 24.99757 | 125.09693 | 7104 ft | 163 kts | 191° |
| 2026-05-08 09:20 | 24.98822 | 125.09128 | 6530 ft | 152 kts | 233° |
| 2026-05-08 09:21 | 24.98592 | 125.08044 | 5909 ft | 150 kts | 279° |
| 2026-05-08 09:21 | 24.99187 | 125.07129 | 5300 ft | 152 kts | 328° |
| 2026-05-08 09:22 | 24.98873 | 125.09905 | 2928 ft | 145 kts | 159° |
| 2026-05-08 09:23 | 24.97923 | 125.10258 | 2728 ft | 143 kts | 162° |
| 2026-05-08 09:23 | 24.96967 | 125.10555 | 2553 ft | 143 kts | 164° |
| 2026-05-08 09:23 | 24.95992 | 125.10836 | 2395 ft | 148 kts | 165° |
| 2026-05-08 09:23 | 24.94963 | 125.11124 | 2184 ft | 157 kts | 163° |
| 2026-05-08 09:24 | 24.93891 | 125.11419 | 1988 ft | 160 kts | 163° |
| 2026-05-08 09:24 | 24.92806 | 125.11717 | 1753 ft | 161 kts | 161° |
| 2026-05-08 09:24 | 24.91730 | 125.12014 | 1529 ft | 158 kts | 162° |
| 2026-05-08 09:24 | 24.90669 | 125.12300 | 1315 ft | 155 kts | 161° |
| 2026-05-08 09:25 | 24.89629 | 125.12589 | 1120 ft | 154 kts | 162° |
| 2026-05-08 09:25 | 24.88587 | 125.12874 | 962 ft | 156 kts | 161° |
| 2026-05-08 09:25 | 24.87520 | 125.13171 | 767 ft | 159 kts | 162° |
| 2026-05-08 09:25 | 24.86443 | 125.13459 | 573 ft | 159 kts | 162° |
| 2026-05-08 09:26 | 24.85370 | 125.13760 | 365 ft | 157 kts | 162° |
| 2026-05-08 09:26 | 24.84325 | 125.14044 | 124 ft | 156 kts | 162° |
| 2026-05-08 09:26 | 24.83304 | 125.14329 | 29 ft | 137 kts | 165° |
| 2026-05-08 09:26 | 24.82543 | 125.14534 | 41 ft | 88 kts | 166° |
| 2026-05-08 09:27 | 24.82152 | 125.14644 | 50 ft | 25 kts | 163° |
| 2026-05-08 09:27 | 24.82010 | 125.14744 | 47 ft | 20 kts | 137° |
| 2026-05-08 09:27 | 24.81977 | 125.14851 | 48 ft | 16 kts | 63° |
| 2026-05-08 09:27 | 24.82039 | 125.14873 | 51 ft | 8 kts | 348° |
| 2026-05-08 09:28 | 24.82094 | 125.14855 | 49 ft | 8 kts | 343° |
| 2026-05-08 09:28 | 24.82150 | 125.14839 | 48 ft | 8 kts | 346° |
| 2026-05-08 09:28 | 24.82220 | 125.14821 | 47 ft | 15 kts | 347° |
| 2026-05-08 09:28 | 24.82334 | 125.14789 | 44 ft | 17 kts | 345° |
| 2026-05-08 09:29 | 24.82451 | 125.14759 | 42 ft | 17 kts | 347° |
| 2026-05-08 09:29 | 24.82556 | 125.14749 | 40 ft | 12 kts | 30° |
| 2026-05-08 09:29 | 24.82584 | 125.14796 | 39 ft | 5 kts | 47° |
| 2026-05-08 09:29 | 24.82617 | 125.14807 | 39 ft | 6 kts | 3° |
| 2026-05-08 09:30 | 24.82636 | 125.14804 | 38 ft | 1 kts | 347° |
| 2026-05-08 09:30 | 24.82643 | 125.14803 | 38 ft | 1 kts | 349° |